sensor_id;sensor_type;location;lat;lon;timestamp;temperature;humidity
45643;DHT22;31358;46.008;11.144;2023-07-28T00:01:33;18.10;99.90
45643;DHT22;31358;46.008;11.144;2023-07-28T00:03:58;18.10;99.90
45643;DHT22;31358;46.008;11.144;2023-07-28T00:06:24;18.10;99.90
45643;DHT22;31358;46.008;11.144;2023-07-28T00:08:49;18.00;99.90
45643;DHT22;31358;46.008;11.144;2023-07-28T00:11:16;17.90;99.90
45643;DHT22;31358;46.008;11.144;2023-07-28T00:13:42;17.90;99.90
45643;DHT22;31358;46.008;11.144;2023-07-28T00:16:09;17.90;99.90
45643;DHT22;31358;46.008;11.144;2023-07-28T00:18:35;17.80;99.90
45643;DHT22;31358;46.008;11.144;2023-07-28T00:21:01;17.90;99.90
45643;DHT22;31358;46.008;11.144;2023-07-28T00:23:27;18.00;99.90
45643;DHT22;31358;46.008;11.144;2023-07-28T00:25:53;18.00;99.90
45643;DHT22;31358;46.008;11.144;2023-07-28T00:28:18;18.00;99.90
45643;DHT22;31358;46.008;11.144;2023-07-28T00:30:44;18.00;99.90
45643;DHT22;31358;46.008;11.144;2023-07-28T00:33:09;18.00;99.90
45643;DHT22;31358;46.008;11.144;2023-07-28T00:35:35;18.00;99.90
45643;DHT22;31358;46.008;11.144;2023-07-28T00:38:01;18.00;99.90
45643;DHT22;31358;46.008;11.144;2023-07-28T00:40:26;18.00;99.90
45643;DHT22;31358;46.008;11.144;2023-07-28T00:42:52;18.00;99.90
45643;DHT22;31358;46.008;11.144;2023-07-28T00:45:18;18.00;99.90
45643;DHT22;31358;46.008;11.144;2023-07-28T00:47:45;17.90;99.90
45643;DHT22;31358;46.008;11.144;2023-07-28T00:50:11;17.90;99.90
45643;DHT22;31358;46.008;11.144;2023-07-28T00:52:37;17.90;99.90
45643;DHT22;31358;46.008;11.144;2023-07-28T00:55:05;17.90;99.90
45643;DHT22;31358;46.008;11.144;2023-07-28T00:57:31;17.90;99.90
45643;DHT22;31358;46.008;11.144;2023-07-28T00:59:56;17.90;99.90
45643;DHT22;31358;46.008;11.144;2023-07-28T01:02:22;17.90;99.90
45643;DHT22;31358;46.008;11.144;2023-07-28T01:04:48;17.80;99.90
45643;DHT22;31358;46.008;11.144;2023-07-28T01:07:24;17.70;99.90
45643;DHT22;31358;46.008;11.144;2023-07-28T01:10:18;17.60;99.90
45643;DHT22;31358;46.008;11.144;2023-07-28T01:12:46;17.80;99.90
45643;DHT22;31358;46.008;11.144;2023-07-28T01:15:11;17.90;99.90
45643;DHT22;31358;46.008;11.144;2023-07-28T01:17:37;17.80;99.90
45643;DHT22;31358;46.008;11.144;2023-07-28T01:20:03;17.90;99.90
45643;DHT22;31358;46.008;11.144;2023-07-28T01:26:38;17.80;99.90
45643;DHT22;31358;46.008;11.144;2023-07-28T01:28:34;17.70;99.90
45643;DHT22;31358;46.008;11.144;2023-07-28T01:31:02;17.80;99.90
45643;DHT22;31358;46.008;11.144;2023-07-28T01:33:29;17.80;99.90
45643;DHT22;31358;46.008;11.144;2023-07-28T01:35:54;17.70;99.90
45643;DHT22;31358;46.008;11.144;2023-07-28T01:38:21;17.70;99.90
45643;DHT22;31358;46.008;11.144;2023-07-28T01:40:46;17.70;99.90
45643;DHT22;31358;46.008;11.144;2023-07-28T01:43:12;17.80;99.90
45643;DHT22;31358;46.008;11.144;2023-07-28T01:45:38;17.80;99.90
45643;DHT22;31358;46.008;11.144;2023-07-28T01:48:04;17.70;99.90
45643;DHT22;31358;46.008;11.144;2023-07-28T01:50:30;17.70;99.90
45643;DHT22;31358;46.008;11.144;2023-07-28T01:52:56;17.70;99.90
45643;DHT22;31358;46.008;11.144;2023-07-28T01:55:21;17.60;99.90
45643;DHT22;31358;46.008;11.144;2023-07-28T01:57:54;17.60;99.90
45643;DHT22;31358;46.008;11.144;2023-07-28T02:00:19;17.60;99.90
45643;DHT22;31358;46.008;11.144;2023-07-28T02:02:46;17.60;99.90
45643;DHT22;31358;46.008;11.144;2023-07-28T02:05:12;17.50;99.90
45643;DHT22;31358;46.008;11.144;2023-07-28T02:07:38;17.50;99.90
45643;DHT22;31358;46.008;11.144;2023-07-28T02:10:04;17.50;99.90
45643;DHT22;31358;46.008;11.144;2023-07-28T02:12:29;17.50;99.90
45643;DHT22;31358;46.008;11.144;2023-07-28T02:14:55;17.60;99.90
45643;DHT22;31358;46.008;11.144;2023-07-28T02:17:21;17.50;99.90
45643;DHT22;31358;46.008;11.144;2023-07-28T02:19:46;17.40;99.90
45643;DHT22;31358;46.008;11.144;2023-07-28T02:22:13;17.50;99.90
45643;DHT22;31358;46.008;11.144;2023-07-28T02:24:38;17.60;99.90
45643;DHT22;31358;46.008;11.144;2023-07-28T02:27:04;17.60;99.90
45643;DHT22;31358;46.008;11.144;2023-07-28T02:29:30;17.50;99.90
45643;DHT22;31358;46.008;11.144;2023-07-28T02:31:55;17.40;99.90
45643;DHT22;31358;46.008;11.144;2023-07-28T02:34:21;17.40;99.90
45643;DHT22;31358;46.008;11.144;2023-07-28T02:36:47;17.40;99.90
45643;DHT22;31358;46.008;11.144;2023-07-28T02:39:13;17.20;99.90
45643;DHT22;31358;46.008;11.144;2023-07-28T02:41:38;17.30;99.90
45643;DHT22;31358;46.008;11.144;2023-07-28T02:44:04;17.20;99.90
45643;DHT22;31358;46.008;11.144;2023-07-28T02:46:30;17.10;99.90
45643;DHT22;31358;46.008;11.144;2023-07-28T02:48:55;17.10;99.90
45643;DHT22;31358;46.008;11.144;2023-07-28T02:51:21;17.10;99.90
45643;DHT22;31358;46.008;11.144;2023-07-28T02:53:47;17.10;99.90
45643;DHT22;31358;46.008;11.144;2023-07-28T02:56:14;17.10;99.90
45643;DHT22;31358;46.008;11.144;2023-07-28T02:58:39;17.10;99.90
45643;DHT22;31358;46.008;11.144;2023-07-28T03:01:05;17.10;99.90
45643;DHT22;31358;46.008;11.144;2023-07-28T03:03:30;17.00;99.90
45643;DHT22;31358;46.008;11.144;2023-07-28T03:05:56;16.90;99.90
45643;DHT22;31358;46.008;11.144;2023-07-28T03:08:22;17.00;99.90
45643;DHT22;31358;46.008;11.144;2023-07-28T03:10:48;17.00;99.90
45643;DHT22;31358;46.008;11.144;2023-07-28T03:13:14;16.80;99.90
45643;DHT22;31358;46.008;11.144;2023-07-28T03:15:39;16.70;99.90
45643;DHT22;31358;46.008;11.144;2023-07-28T03:18:05;16.60;99.90
45643;DHT22;31358;46.008;11.144;2023-07-28T03:20:30;16.60;99.90
45643;DHT22;31358;46.008;11.144;2023-07-28T03:22:56;16.60;99.90
45643;DHT22;31358;46.008;11.144;2023-07-28T03:25:22;16.60;99.90
45643;DHT22;31358;46.008;11.144;2023-07-28T03:27:47;16.50;99.90
45643;DHT22;31358;46.008;11.144;2023-07-28T03:30:13;16.60;99.90
45643;DHT22;31358;46.008;11.144;2023-07-28T03:32:39;16.70;99.90
45643;DHT22;31358;46.008;11.144;2023-07-28T03:35:05;16.50;99.90
45643;DHT22;31358;46.008;11.144;2023-07-28T03:37:32;16.70;99.90
45643;DHT22;31358;46.008;11.144;2023-07-28T03:39:58;16.70;99.90
45643;DHT22;31358;46.008;11.144;2023-07-28T03:42:24;16.80;99.90
45643;DHT22;31358;46.008;11.144;2023-07-28T03:44:49;16.80;99.90
45643;DHT22;31358;46.008;11.144;2023-07-28T03:47:15;16.80;99.90
45643;DHT22;31358;46.008;11.144;2023-07-28T03:49:41;16.70;99.90
45643;DHT22;31358;46.008;11.144;2023-07-28T03:52:07;16.60;99.90
45643;DHT22;31358;46.008;11.144;2023-07-28T03:54:32;16.60;99.90
45643;DHT22;31358;46.008;11.144;2023-07-28T03:56:58;16.60;99.90
45643;DHT22;31358;46.008;11.144;2023-07-28T03:59:23;16.70;99.90
45643;DHT22;31358;46.008;11.144;2023-07-28T04:01:49;16.80;99.90
45643;DHT22;31358;46.008;11.144;2023-07-28T04:04:15;16.90;99.90
45643;DHT22;31358;46.008;11.144;2023-07-28T04:06:48;17.00;99.90
45643;DHT22;31358;46.008;11.144;2023-07-28T04:09:19;17.00;99.90
45643;DHT22;31358;46.008;11.144;2023-07-28T04:11:45;17.00;99.90
45643;DHT22;31358;46.008;11.144;2023-07-28T04:14:11;17.10;99.90
45643;DHT22;31358;46.008;11.144;2023-07-28T04:16:37;17.00;99.90
45643;DHT22;31358;46.008;11.144;2023-07-28T04:19:02;16.90;99.90
45643;DHT22;31358;46.008;11.144;2023-07-28T04:21:28;17.00;99.90
45643;DHT22;31358;46.008;11.144;2023-07-28T04:23:53;16.90;99.90
45643;DHT22;31358;46.008;11.144;2023-07-28T04:26:19;16.90;99.90
45643;DHT22;31358;46.008;11.144;2023-07-28T04:28:45;16.80;99.90
45643;DHT22;31358;46.008;11.144;2023-07-28T04:31:11;16.80;99.90
45643;DHT22;31358;46.008;11.144;2023-07-28T04:33:40;16.90;99.90
45643;DHT22;31358;46.008;11.144;2023-07-28T04:36:06;16.90;99.90
45643;DHT22;31358;46.008;11.144;2023-07-28T04:38:32;17.00;99.90
45643;DHT22;31358;46.008;11.144;2023-07-28T04:40:57;16.90;99.90
45643;DHT22;31358;46.008;11.144;2023-07-28T04:43:23;16.80;99.90
45643;DHT22;31358;46.008;11.144;2023-07-28T04:45:49;16.90;99.90
45643;DHT22;31358;46.008;11.144;2023-07-28T04:48:14;16.90;99.90
45643;DHT22;31358;46.008;11.144;2023-07-28T04:50:40;17.00;99.90
45643;DHT22;31358;46.008;11.144;2023-07-28T04:53:06;17.00;99.90
45643;DHT22;31358;46.008;11.144;2023-07-28T04:55:31;17.10;99.90
45643;DHT22;31358;46.008;11.144;2023-07-28T04:57:57;17.20;99.90
45643;DHT22;31358;46.008;11.144;2023-07-28T05:00:23;17.20;99.90
45643;DHT22;31358;46.008;11.144;2023-07-28T05:02:49;17.20;99.90
45643;DHT22;31358;46.008;11.144;2023-07-28T05:05:14;17.40;99.90
45643;DHT22;31358;46.008;11.144;2023-07-28T05:07:41;17.50;99.90
45643;DHT22;31358;46.008;11.144;2023-07-28T05:10:08;17.60;99.90
45643;DHT22;31358;46.008;11.144;2023-07-28T05:12:34;17.60;99.90
45643;DHT22;31358;46.008;11.144;2023-07-28T05:14:59;17.60;99.90
45643;DHT22;31358;46.008;11.144;2023-07-28T05:17:25;17.70;99.90
45643;DHT22;31358;46.008;11.144;2023-07-28T05:19:51;17.60;99.90
45643;DHT22;31358;46.008;11.144;2023-07-28T05:22:17;17.40;99.90
45643;DHT22;31358;46.008;11.144;2023-07-28T05:24:43;17.40;99.90
45643;DHT22;31358;46.008;11.144;2023-07-28T05:27:10;17.40;99.90
45643;DHT22;31358;46.008;11.144;2023-07-28T05:29:36;17.30;99.90
45643;DHT22;31358;46.008;11.144;2023-07-28T05:32:01;17.40;99.90
45643;DHT22;31358;46.008;11.144;2023-07-28T05:34:27;17.60;99.90
45643;DHT22;31358;46.008;11.144;2023-07-28T05:36:53;17.40;99.90
45643;DHT22;31358;46.008;11.144;2023-07-28T05:39:19;17.50;99.90
45643;DHT22;31358;46.008;11.144;2023-07-28T05:41:45;17.40;99.90
45643;DHT22;31358;46.008;11.144;2023-07-28T05:44:11;17.30;99.90
45643;DHT22;31358;46.008;11.144;2023-07-28T05:46:37;17.20;99.90
45643;DHT22;31358;46.008;11.144;2023-07-28T05:49:02;17.30;99.90
45643;DHT22;31358;46.008;11.144;2023-07-28T05:51:28;17.40;99.90
45643;DHT22;31358;46.008;11.144;2023-07-28T05:53:54;17.40;99.90
45643;DHT22;31358;46.008;11.144;2023-07-28T05:56:20;17.40;99.90
45643;DHT22;31358;46.008;11.144;2023-07-28T05:58:46;17.60;99.90
45643;DHT22;31358;46.008;11.144;2023-07-28T06:01:12;17.70;99.90
45643;DHT22;31358;46.008;11.144;2023-07-28T06:03:38;17.60;99.90
45643;DHT22;31358;46.008;11.144;2023-07-28T06:06:04;17.60;99.90
45643;DHT22;31358;46.008;11.144;2023-07-28T06:08:29;17.70;99.90
45643;DHT22;31358;46.008;11.144;2023-07-28T06:10:55;17.70;99.90
45643;DHT22;31358;46.008;11.144;2023-07-28T06:13:21;17.70;99.90
45643;DHT22;31358;46.008;11.144;2023-07-28T06:15:47;17.70;99.90
45643;DHT22;31358;46.008;11.144;2023-07-28T06:18:13;17.70;99.90
45643;DHT22;31358;46.008;11.144;2023-07-28T06:20:42;17.80;99.90
45643;DHT22;31358;46.008;11.144;2023-07-28T06:23:08;17.90;99.90
45643;DHT22;31358;46.008;11.144;2023-07-28T06:25:34;17.90;99.90
45643;DHT22;31358;46.008;11.144;2023-07-28T06:27:59;18.00;99.90
45643;DHT22;31358;46.008;11.144;2023-07-28T06:30:25;18.10;99.90
45643;DHT22;31358;46.008;11.144;2023-07-28T06:32:51;18.30;99.90
45643;DHT22;31358;46.008;11.144;2023-07-28T06:35:17;18.30;99.90
45643;DHT22;31358;46.008;11.144;2023-07-28T06:37:43;18.40;99.90
45643;DHT22;31358;46.008;11.144;2023-07-28T06:40:09;18.40;99.90
45643;DHT22;31358;46.008;11.144;2023-07-28T06:42:36;18.40;99.90
45643;DHT22;31358;46.008;11.144;2023-07-28T06:45:02;18.60;99.90
45643;DHT22;31358;46.008;11.144;2023-07-28T06:47:28;18.60;99.90
45643;DHT22;31358;46.008;11.144;2023-07-28T06:49:54;18.80;99.90
45643;DHT22;31358;46.008;11.144;2023-07-28T06:52:20;18.90;99.90
45643;DHT22;31358;46.008;11.144;2023-07-28T06:54:46;19.00;99.90
45643;DHT22;31358;46.008;11.144;2023-07-28T06:57:14;19.10;99.90
45643;DHT22;31358;46.008;11.144;2023-07-28T06:59:40;19.20;99.90
45643;DHT22;31358;46.008;11.144;2023-07-28T07:02:06;19.40;99.90
45643;DHT22;31358;46.008;11.144;2023-07-28T07:04:32;19.60;99.90
45643;DHT22;31358;46.008;11.144;2023-07-28T07:06:58;19.60;99.90
45643;DHT22;31358;46.008;11.144;2023-07-28T07:09:23;19.90;99.90
45643;DHT22;31358;46.008;11.144;2023-07-28T07:11:50;20.20;99.90
45643;DHT22;31358;46.008;11.144;2023-07-28T07:14:16;20.60;99.90
45643;DHT22;31358;46.008;11.144;2023-07-28T07:16:42;20.80;99.90
45643;DHT22;31358;46.008;11.144;2023-07-28T07:19:08;20.90;99.90
45643;DHT22;31358;46.008;11.144;2023-07-28T07:21:34;21.10;99.90
45643;DHT22;31358;46.008;11.144;2023-07-28T07:24:00;21.30;99.90
45643;DHT22;31358;46.008;11.144;2023-07-28T07:26:26;21.60;99.90
45643;DHT22;31358;46.008;11.144;2023-07-28T07:28:52;22.10;99.90
45643;DHT22;31358;46.008;11.144;2023-07-28T07:31:18;23.10;99.90
45643;DHT22;31358;46.008;11.144;2023-07-28T07:33:45;24.20;99.30
45643;DHT22;31358;46.008;11.144;2023-07-28T07:36:15;24.90;97.80
45643;DHT22;31358;46.008;11.144;2023-07-28T07:38:41;25.90;96.50
45643;DHT22;31358;46.008;11.144;2023-07-28T07:41:07;26.50;95.50
45643;DHT22;31358;46.008;11.144;2023-07-28T07:43:36;27.20;94.70
45643;DHT22;31358;46.008;11.144;2023-07-28T07:46:02;27.20;94.10
45643;DHT22;31358;46.008;11.144;2023-07-28T07:48:27;27.90;94.00
45643;DHT22;31358;46.008;11.144;2023-07-28T07:50:53;28.00;94.40
45643;DHT22;31358;46.008;11.144;2023-07-28T07:53:18;28.00;93.80
45643;DHT22;31358;46.008;11.144;2023-07-28T07:55:44;28.10;94.10
45643;DHT22;31358;46.008;11.144;2023-07-28T07:58:10;28.00;94.10
45643;DHT22;31358;46.008;11.144;2023-07-28T08:00:38;27.90;94.00
45643;DHT22;31358;46.008;11.144;2023-07-28T08:03:04;28.00;93.80
45643;DHT22;31358;46.008;11.144;2023-07-28T08:05:30;27.30;95.00
45643;DHT22;31358;46.008;11.144;2023-07-28T08:07:56;25.80;95.20
45643;DHT22;31358;46.008;11.144;2023-07-28T08:10:22;23.80;97.80
45643;DHT22;31358;46.008;11.144;2023-07-28T08:12:48;23.90;97.60
45643;DHT22;31358;46.008;11.144;2023-07-28T08:15:14;25.00;96.20
45643;DHT22;31358;46.008;11.144;2023-07-28T08:17:40;25.80;95.70
45643;DHT22;31358;46.008;11.144;2023-07-28T08:20:07;26.40;95.50
45643;DHT22;31358;46.008;11.144;2023-07-28T08:22:33;26.70;95.60
45643;DHT22;31358;46.008;11.144;2023-07-28T08:24:58;26.70;95.20
45643;DHT22;31358;46.008;11.144;2023-07-28T08:27:24;26.10;95.00
45643;DHT22;31358;46.008;11.144;2023-07-28T08:29:50;25.20;95.90
45643;DHT22;31358;46.008;11.144;2023-07-28T08:32:16;24.60;97.00
45643;DHT22;31358;46.008;11.144;2023-07-28T08:34:42;24.40;98.00
45643;DHT22;31358;46.008;11.144;2023-07-28T08:37:08;24.30;97.80
45643;DHT22;31358;46.008;11.144;2023-07-28T08:39:34;24.10;97.40
45643;DHT22;31358;46.008;11.144;2023-07-28T08:42:03;24.20;97.40
45643;DHT22;31358;46.008;11.144;2023-07-28T08:44:33;24.00;97.20
45643;DHT22;31358;46.008;11.144;2023-07-28T08:47:01;24.30;97.70
45643;DHT22;31358;46.008;11.144;2023-07-28T08:49:27;24.30;97.20
45643;DHT22;31358;46.008;11.144;2023-07-28T08:51:58;24.40;97.50
45643;DHT22;31358;46.008;11.144;2023-07-28T08:54:23;24.10;97.60
45643;DHT22;31358;46.008;11.144;2023-07-28T08:56:49;24.10;97.10
45643;DHT22;31358;46.008;11.144;2023-07-28T08:59:26;24.30;97.20
45643;DHT22;31358;46.008;11.144;2023-07-28T09:01:57;24.40;96.70
45643;DHT22;31358;46.008;11.144;2023-07-28T09:04:26;24.50;96.50
45643;DHT22;31358;46.008;11.144;2023-07-28T09:06:52;24.50;96.60
45643;DHT22;31358;46.008;11.144;2023-07-28T09:09:21;24.60;97.50
45643;DHT22;31358;46.008;11.144;2023-07-28T09:11:49;24.70;97.20
45643;DHT22;31358;46.008;11.144;2023-07-28T09:14:16;24.90;96.50
45643;DHT22;31358;46.008;11.144;2023-07-28T09:16:42;24.90;96.30
45643;DHT22;31358;46.008;11.144;2023-07-28T09:19:09;25.20;96.90
45643;DHT22;31358;46.008;11.144;2023-07-28T09:21:35;25.30;96.30
45643;DHT22;31358;46.008;11.144;2023-07-28T09:24:04;25.40;96.60
45643;DHT22;31358;46.008;11.144;2023-07-28T09:26:46;25.60;95.90
45643;DHT22;31358;46.008;11.144;2023-07-28T09:29:16;25.30;96.90
45643;DHT22;31358;46.008;11.144;2023-07-28T09:31:43;25.20;96.70
45643;DHT22;31358;46.008;11.144;2023-07-28T09:34:10;25.20;96.70
45643;DHT22;31358;46.008;11.144;2023-07-28T09:36:36;25.30;97.40
45643;DHT22;31358;46.008;11.144;2023-07-28T09:39:05;25.40;96.40
45643;DHT22;31358;46.008;11.144;2023-07-28T09:41:35;25.60;97.80
45643;DHT22;31358;46.008;11.144;2023-07-28T09:44:01;25.60;96.50
45643;DHT22;31358;46.008;11.144;2023-07-28T09:46:29;25.80;97.10
45643;DHT22;31358;46.008;11.144;2023-07-28T09:48:57;25.70;96.70
45643;DHT22;31358;46.008;11.144;2023-07-28T09:51:29;25.70;95.90
45643;DHT22;31358;46.008;11.144;2023-07-28T09:54:01;25.70;96.00
45643;DHT22;31358;46.008;11.144;2023-07-28T09:56:29;25.70;96.10
45643;DHT22;31358;46.008;11.144;2023-07-28T09:58:56;25.70;96.00
45643;DHT22;31358;46.008;11.144;2023-07-28T10:01:23;25.70;96.30
45643;DHT22;31358;46.008;11.144;2023-07-28T10:03:50;25.90;96.70
45643;DHT22;31358;46.008;11.144;2023-07-28T10:06:19;26.30;96.10
45643;DHT22;31358;46.008;11.144;2023-07-28T10:08:45;26.40;96.30
45643;DHT22;31358;46.008;11.144;2023-07-28T10:11:17;26.60;95.80
45643;DHT22;31358;46.008;11.144;2023-07-28T10:13:44;26.80;95.80
45643;DHT22;31358;46.008;11.144;2023-07-28T10:16:13;26.90;97.00
45643;DHT22;31358;46.008;11.144;2023-07-28T10:18:41;26.70;95.90
45643;DHT22;31358;46.008;11.144;2023-07-28T10:21:16;26.70;95.90
45643;DHT22;31358;46.008;11.144;2023-07-28T10:23:44;26.70;95.70
45643;DHT22;31358;46.008;11.144;2023-07-28T10:26:09;27.00;95.70
45643;DHT22;31358;46.008;11.144;2023-07-28T10:28:37;26.60;95.40
45643;DHT22;31358;46.008;11.144;2023-07-28T10:31:08;26.90;96.10
45643;DHT22;31358;46.008;11.144;2023-07-28T10:38:59;26.60;95.30
45643;DHT22;31358;46.008;11.144;2023-07-28T10:41:25;26.90;95.70
45643;DHT22;31358;46.008;11.144;2023-07-28T10:43:51;27.20;96.10
45643;DHT22;31358;46.008;11.144;2023-07-28T10:46:20;27.20;95.40
45643;DHT22;31358;46.008;11.144;2023-07-28T10:48:47;27.30;95.90
45643;DHT22;31358;46.008;11.144;2023-07-28T10:51:22;27.40;96.50
45643;DHT22;31358;46.008;11.144;2023-07-28T10:53:54;27.50;96.60
45643;DHT22;31358;46.008;11.144;2023-07-28T10:56:20;27.80;96.70
45643;DHT22;31358;46.008;11.144;2023-07-28T10:58:46;27.40;95.10
45643;DHT22;31358;46.008;11.144;2023-07-28T11:01:14;27.20;96.50
45643;DHT22;31358;46.008;11.144;2023-07-28T11:03:41;26.80;97.00
45643;DHT22;31358;46.008;11.144;2023-07-28T11:06:06;26.40;96.50
45643;DHT22;31358;46.008;11.144;2023-07-28T11:08:32;26.80;95.50
45643;DHT22;31358;46.008;11.144;2023-07-28T11:10:58;27.00;94.50
45643;DHT22;31358;46.008;11.144;2023-07-28T11:13:24;27.00;95.40
45643;DHT22;31358;46.008;11.144;2023-07-28T11:15:50;26.90;95.70
45643;DHT22;31358;46.008;11.144;2023-07-28T11:18:16;26.80;95.60
45643;DHT22;31358;46.008;11.144;2023-07-28T11:20:42;26.90;96.10
45643;DHT22;31358;46.008;11.144;2023-07-28T11:23:08;26.90;95.90
45643;DHT22;31358;46.008;11.144;2023-07-28T11:25:34;26.90;95.70
45643;DHT22;31358;46.008;11.144;2023-07-28T11:28:04;26.80;95.30
45643;DHT22;31358;46.008;11.144;2023-07-28T11:30:31;26.90;96.50
45643;DHT22;31358;46.008;11.144;2023-07-28T11:32:58;26.90;96.10
45643;DHT22;31358;46.008;11.144;2023-07-28T11:35:23;27.10;95.20
45643;DHT22;31358;46.008;11.144;2023-07-28T11:37:51;27.10;96.50
45643;DHT22;31358;46.008;11.144;2023-07-28T11:40:19;27.40;95.70
45643;DHT22;31358;46.008;11.144;2023-07-28T11:42:55;27.20;95.70
45643;DHT22;31358;46.008;11.144;2023-07-28T11:45:21;27.00;95.50
45643;DHT22;31358;46.008;11.144;2023-07-28T11:50:30;27.30;95.20
45643;DHT22;31358;46.008;11.144;2023-07-28T11:52:59;27.50;95.30
45643;DHT22;31358;46.008;11.144;2023-07-28T11:55:25;27.30;94.60
45643;DHT22;31358;46.008;11.144;2023-07-28T11:57:54;27.50;95.80
45643;DHT22;31358;46.008;11.144;2023-07-28T12:00:29;27.50;95.10
45643;DHT22;31358;46.008;11.144;2023-07-28T12:03:03;27.40;94.80
45643;DHT22;31358;46.008;11.144;2023-07-28T12:05:29;27.30;95.30
45643;DHT22;31358;46.008;11.144;2023-07-28T12:07:55;27.20;96.50
45643;DHT22;31358;46.008;11.144;2023-07-28T12:10:21;27.50;96.10
45643;DHT22;31358;46.008;11.144;2023-07-28T12:12:47;27.30;95.20
45643;DHT22;31358;46.008;11.144;2023-07-28T12:15:29;27.60;95.80
45643;DHT22;31358;46.008;11.144;2023-07-28T12:20:37;26.90;95.90
45643;DHT22;31358;46.008;11.144;2023-07-28T12:23:03;27.00;95.50
45643;DHT22;31358;46.008;11.144;2023-07-28T12:25:29;27.00;95.50
45643;DHT22;31358;46.008;11.144;2023-07-28T12:27:55;26.90;95.20
45643;DHT22;31358;46.008;11.144;2023-07-28T12:30:21;27.20;95.00
45643;DHT22;31358;46.008;11.144;2023-07-28T12:32:47;27.70;94.70
45643;DHT22;31358;46.008;11.144;2023-07-28T12:35:12;27.80;94.70
45643;DHT22;31358;46.008;11.144;2023-07-28T12:37:38;28.00;94.20
45643;DHT22;31358;46.008;11.144;2023-07-28T12:40:05;28.00;94.20
45643;DHT22;31358;46.008;11.144;2023-07-28T12:42:31;27.60;93.80
45643;DHT22;31358;46.008;11.144;2023-07-28T12:44:57;27.30;94.50
45643;DHT22;31358;46.008;11.144;2023-07-28T12:47:23;27.60;95.40
45643;DHT22;31358;46.008;11.144;2023-07-28T12:49:49;27.80;94.80
45643;DHT22;31358;46.008;11.144;2023-07-28T12:52:14;27.60;95.30
45643;DHT22;31358;46.008;11.144;2023-07-28T12:54:40;27.70;95.20
45643;DHT22;31358;46.008;11.144;2023-07-28T12:57:08;28.10;95.50
45643;DHT22;31358;46.008;11.144;2023-07-28T12:59:36;28.00;94.60
45643;DHT22;31358;46.008;11.144;2023-07-28T13:02:01;28.10;95.10
45643;DHT22;31358;46.008;11.144;2023-07-28T13:04:27;28.10;94.90
45643;DHT22;31358;46.008;11.144;2023-07-28T13:06:53;28.20;95.20
45643;DHT22;31358;46.008;11.144;2023-07-28T13:09:18;28.20;95.30
45643;DHT22;31358;46.008;11.144;2023-07-28T13:11:44;28.50;95.10
45643;DHT22;31358;46.008;11.144;2023-07-28T13:14:10;28.50;95.10
45643;DHT22;31358;46.008;11.144;2023-07-28T13:16:35;28.50;95.30
45643;DHT22;31358;46.008;11.144;2023-07-28T13:19:06;28.80;95.10
45643;DHT22;31358;46.008;11.144;2023-07-28T13:21:32;28.80;94.60
45643;DHT22;31358;46.008;11.144;2023-07-28T13:23:58;28.60;94.80
45643;DHT22;31358;46.008;11.144;2023-07-28T13:26:24;28.50;95.20
45643;DHT22;31358;46.008;11.144;2023-07-28T13:28:51;28.60;94.90
45643;DHT22;31358;46.008;11.144;2023-07-28T13:31:16;28.70;94.90
45643;DHT22;31358;46.008;11.144;2023-07-28T13:33:43;28.90;95.40
45643;DHT22;31358;46.008;11.144;2023-07-28T13:36:08;28.90;94.90
45643;DHT22;31358;46.008;11.144;2023-07-28T13:38:34;28.80;94.10
45643;DHT22;31358;46.008;11.144;2023-07-28T13:41:01;28.30;94.60
45643;DHT22;31358;46.008;11.144;2023-07-28T13:43:27;28.10;94.50
45643;DHT22;31358;46.008;11.144;2023-07-28T13:45:53;28.30;95.60
45643;DHT22;31358;46.008;11.144;2023-07-28T13:48:19;28.10;94.60
45643;DHT22;31358;46.008;11.144;2023-07-28T13:50:45;28.20;94.70
45643;DHT22;31358;46.008;11.144;2023-07-28T13:53:11;28.30;95.50
45643;DHT22;31358;46.008;11.144;2023-07-28T13:55:37;28.60;95.10
45643;DHT22;31358;46.008;11.144;2023-07-28T13:58:03;28.80;95.10
45643;DHT22;31358;46.008;11.144;2023-07-28T14:00:28;28.60;95.00
45643;DHT22;31358;46.008;11.144;2023-07-28T14:02:54;28.80;94.90
45643;DHT22;31358;46.008;11.144;2023-07-28T14:05:20;28.70;94.80
45643;DHT22;31358;46.008;11.144;2023-07-28T14:07:46;28.70;94.90
45643;DHT22;31358;46.008;11.144;2023-07-28T14:10:11;28.70;94.70
45643;DHT22;31358;46.008;11.144;2023-07-28T14:12:37;28.40;94.60
45643;DHT22;31358;46.008;11.144;2023-07-28T14:15:04;28.50;94.80
45643;DHT22;31358;46.008;11.144;2023-07-28T14:17:30;28.10;94.40
45643;DHT22;31358;46.008;11.144;2023-07-28T14:19:55;27.70;95.10
45643;DHT22;31358;46.008;11.144;2023-07-28T14:22:21;27.60;94.80
45643;DHT22;31358;46.008;11.144;2023-07-28T14:24:47;27.50;95.00
45643;DHT22;31358;46.008;11.144;2023-07-28T14:27:12;27.80;95.30
45643;DHT22;31358;46.008;11.144;2023-07-28T14:29:38;28.00;95.00
45643;DHT22;31358;46.008;11.144;2023-07-28T14:32:05;28.30;94.80
45643;DHT22;31358;46.008;11.144;2023-07-28T14:34:30;28.40;95.10
45643;DHT22;31358;46.008;11.144;2023-07-28T14:36:56;28.50;95.00
45643;DHT22;31358;46.008;11.144;2023-07-28T14:39:22;28.30;94.90
45643;DHT22;31358;46.008;11.144;2023-07-28T14:41:47;28.30;94.30
45643;DHT22;31358;46.008;11.144;2023-07-28T14:44:13;28.40;95.60
45643;DHT22;31358;46.008;11.144;2023-07-28T14:46:39;28.00;94.80
45643;DHT22;31358;46.008;11.144;2023-07-28T14:49:04;27.60;94.90
45643;DHT22;31358;46.008;11.144;2023-07-28T14:51:30;27.50;95.30
45643;DHT22;31358;46.008;11.144;2023-07-28T14:53:56;27.60;95.00
45643;DHT22;31358;46.008;11.144;2023-07-28T14:56:22;27.90;95.20
45643;DHT22;31358;46.008;11.144;2023-07-28T14:58:50;27.80;95.20
45643;DHT22;31358;46.008;11.144;2023-07-28T15:01:20;27.50;95.50
45643;DHT22;31358;46.008;11.144;2023-07-28T15:03:46;27.10;95.40
45643;DHT22;31358;46.008;11.144;2023-07-28T15:06:12;27.20;96.00
45643;DHT22;31358;46.008;11.144;2023-07-28T15:08:38;27.20;95.90
45643;DHT22;31358;46.008;11.144;2023-07-28T15:11:03;26.90;95.60
45643;DHT22;31358;46.008;11.144;2023-07-28T15:13:29;26.90;95.60
45643;DHT22;31358;46.008;11.144;2023-07-28T15:15:55;26.90;95.40
45643;DHT22;31358;46.008;11.144;2023-07-28T15:18:20;26.80;95.80
45643;DHT22;31358;46.008;11.144;2023-07-28T15:20:46;26.70;95.70
45643;DHT22;31358;46.008;11.144;2023-07-28T15:23:12;26.80;95.70
45643;DHT22;31358;46.008;11.144;2023-07-28T15:25:37;26.80;95.70